createdAt,value
2022-08-30T00:00:02.355Z,97.10
2022-08-30T00:02:29.433Z,97.10
2022-08-30T00:04:56.557Z,97.70
2022-08-30T00:07:23.684Z,97.90
2022-08-30T00:09:50.601Z,99.90
2022-08-30T00:12:17.686Z,99.90
2022-08-30T00:14:44.654Z,99.90
2022-08-30T00:17:11.533Z,99.90
2022-08-30T00:19:38.806Z,99.90
2022-08-30T00:22:07.289Z,99.90
2022-08-30T00:24:34.249Z,99.90
2022-08-30T00:27:01.129Z,99.90
2022-08-30T00:29:28.196Z,99.90
2022-08-30T00:31:55.045Z,99.90
2022-08-30T00:44:12.067Z,99.70
2022-08-30T00:46:38.972Z,99.90
2022-08-30T00:49:11.409Z,99.90
2022-08-30T00:51:39.439Z,99.90
2022-08-30T00:54:07.758Z,99.90
2022-08-30T00:56:35.184Z,99.90
2022-08-30T00:59:04.420Z,99.90
2022-08-30T01:01:34.327Z,99.90
2022-08-30T01:04:02.332Z,99.90
2022-08-30T01:06:32.605Z,99.90
2022-08-30T01:09:02.658Z,99.90
2022-08-30T01:11:32.284Z,99.90
2022-08-30T01:14:01.175Z,99.90
2022-08-30T01:16:34.388Z,99.90
2022-08-30T01:19:02.800Z,99.90
2022-08-30T01:21:47.823Z,99.90
2022-08-30T01:24:15.435Z,99.90
2022-08-30T01:26:42.334Z,99.90
2022-08-30T01:29:15.214Z,99.90
2022-08-30T01:31:42.077Z,99.90
2022-08-30T01:34:10.050Z,99.90
2022-08-30T01:36:44.569Z,99.90
2022-08-30T01:39:16.984Z,99.90
2022-08-30T01:41:45.336Z,99.90
2022-08-30T01:44:14.533Z,99.90
2022-08-30T01:46:47.318Z,99.90
2022-08-30T01:49:19.987Z,99.90
2022-08-30T01:52:00.976Z,99.90
2022-08-30T01:54:33.207Z,99.90
2022-08-30T01:57:10.397Z,99.90
2022-08-30T01:59:39.294Z,99.90
2022-08-30T02:02:07.212Z,99.90
2022-08-30T02:04:36.384Z,99.90
2022-08-30T02:07:04.767Z,99.90
2022-08-30T02:09:31.790Z,99.90
2022-08-30T02:11:59.110Z,99.90
2022-08-30T02:14:26.098Z,99.90
2022-08-30T02:16:53.051Z,99.90
2022-08-30T02:19:19.933Z,99.90
2022-08-30T02:21:46.897Z,99.90
2022-08-30T02:24:13.745Z,99.90
2022-08-30T02:26:40.795Z,99.90
2022-08-30T02:29:07.881Z,99.90
2022-08-30T02:31:35.523Z,99.90
2022-08-30T02:34:02.669Z,99.90
2022-08-30T02:36:29.559Z,99.90
2022-08-30T02:38:56.602Z,99.90
2022-08-30T02:41:24.180Z,99.90
2022-08-30T02:43:51.753Z,99.90
2022-08-30T02:46:18.945Z,99.90
2022-08-30T02:48:46.133Z,99.90
2022-08-30T02:51:14.192Z,99.90
2022-08-30T02:53:43.919Z,99.90
2022-08-30T02:56:13.880Z,99.90
2022-08-30T02:58:44.999Z,99.90
2022-08-30T03:01:15.612Z,99.90
2022-08-30T03:03:45.444Z,99.90
2022-08-30T03:06:13.525Z,99.90
2022-08-30T03:08:41.345Z,99.90
2022-08-30T03:11:10.001Z,99.90
2022-08-30T03:13:37.569Z,99.90
2022-08-30T03:16:04.523Z,99.90
2022-08-30T03:18:31.382Z,99.90
2022-08-30T03:20:58.784Z,99.90
2022-08-30T03:23:25.694Z,99.90
2022-08-30T03:25:53.559Z,99.90
2022-08-30T03:28:20.606Z,99.90
2022-08-30T03:30:48.134Z,99.90
2022-08-30T03:33:15.352Z,99.90
2022-08-30T03:35:42.337Z,99.90
2022-08-30T03:38:09.328Z,99.90
2022-08-30T03:40:36.735Z,99.90
2022-08-30T03:43:05.467Z,99.90
2022-08-30T03:45:32.663Z,99.90
2022-08-30T03:47:59.753Z,99.90
2022-08-30T03:50:26.951Z,99.90
2022-08-30T03:52:53.840Z,99.90
2022-08-30T03:55:21.251Z,99.90
2022-08-30T08:08:48.320Z,99.90
2022-08-30T08:11:22.893Z,99.90
2022-08-30T08:13:54.041Z,99.90
2022-08-30T08:16:30.246Z,99.90
2022-08-30T08:18:57.821Z,99.90
2022-08-30T08:21:27.318Z,99.90
2022-08-30T08:23:55.272Z,99.90
2022-08-30T08:26:22.628Z,99.90
2022-08-30T08:28:52.220Z,99.90
2022-08-30T08:31:33.275Z,99.90
2022-08-30T08:34:03.094Z,99.90
2022-08-30T08:36:31.468Z,99.90
2022-08-30T08:38:59.476Z,99.90
2022-08-30T08:41:51.159Z,99.90
2022-08-30T08:45:00.411Z,99.90
2022-08-30T08:48:00.436Z,99.90
2022-08-30T08:50:31.482Z,99.90
2022-08-30T08:53:46.486Z,99.90
2022-08-30T08:56:18.677Z,99.10
2022-08-30T08:58:50.115Z,99.00
2022-08-30T09:01:23.485Z,98.50
2022-08-30T09:03:51.698Z,98.40
2022-08-30T09:06:45.728Z,96.80
2022-08-30T09:09:13.960Z,97.20
2022-08-30T09:11:42.440Z,97.20
2022-08-30T09:14:17.942Z,96.60
2022-08-30T09:17:02.979Z,95.70
2022-08-30T09:19:42.593Z,95.90
2022-08-30T09:22:16.980Z,95.20
2022-08-30T09:24:49.669Z,94.30
2022-08-30T09:27:34.669Z,94.30
2022-08-30T09:30:27.788Z,93.90
2022-08-30T09:33:07.711Z,93.60
2022-08-30T09:35:49.685Z,93.80
2022-08-30T09:38:24.967Z,92.80
2022-08-30T09:40:55.919Z,93.00
2022-08-30T09:43:29.314Z,92.90
2022-08-30T09:46:03.468Z,92.90
2022-08-30T09:48:40.898Z,93.00
2022-08-30T09:51:11.040Z,93.00
2022-08-30T09:54:18.280Z,91.90
2022-08-30T09:57:03.867Z,91.50
2022-08-30T09:59:41.789Z,91.90
2022-08-30T10:02:43.855Z,91.20
2022-08-30T10:06:00.824Z,91.30
2022-08-30T10:08:45.816Z,90.50
2022-08-30T10:11:50.292Z,90.00
2022-08-30T10:14:32.432Z,90.10
2022-08-30T10:17:12.459Z,90.20
2022-08-30T10:20:07.916Z,90.10
2022-08-30T10:22:46.607Z,89.00
2022-08-30T10:25:21.671Z,88.80
2022-08-30T10:28:14.662Z,89.80
2022-08-30T10:30:52.881Z,89.20
2022-08-30T10:33:40.876Z,87.90
2022-08-30T10:36:12.932Z,88.50
2022-08-30T10:38:48.733Z,87.30
2022-08-30T10:41:39.932Z,87.10
2022-08-30T10:44:23.007Z,87.60
2022-08-30T10:47:05.036Z,87.10
2022-08-30T10:49:40.674Z,86.90
2022-08-30T10:52:41.780Z,87.10
2022-08-30T10:55:19.321Z,86.90
2022-08-30T10:57:46.798Z,86.60
2022-08-30T11:00:24.389Z,87.00
2022-08-30T11:03:37.285Z,87.90
2022-08-30T11:06:55.007Z,86.50
2022-08-30T11:09:42.128Z,87.10
2022-08-30T11:12:27.542Z,87.60
2022-08-30T11:14:55.299Z,87.80
2022-08-30T11:17:28.668Z,87.50
2022-08-30T11:20:01.431Z,87.90
2022-08-30T11:22:34.422Z,86.70
2022-08-30T11:25:14.141Z,88.10
2022-08-30T11:27:58.934Z,86.80
2022-08-30T11:30:26.492Z,87.20
2022-08-30T11:33:03.084Z,87.50
2022-08-30T11:35:52.513Z,86.00
2022-08-30T11:38:25.530Z,87.10
2022-08-30T11:40:55.279Z,87.10
2022-08-30T11:43:34.568Z,86.80
2022-08-30T11:46:17.694Z,87.00
2022-08-30T11:49:13.071Z,87.00
2022-08-30T11:52:27.937Z,89.00
2022-08-30T11:55:04.131Z,87.70
2022-08-30T11:57:45.536Z,88.00
2022-08-30T12:00:39.749Z,88.60
2022-08-30T12:03:20.519Z,87.10
2022-08-30T12:06:08.810Z,89.20
2022-08-30T12:08:47.566Z,88.00
2022-08-30T12:11:19.036Z,89.30
2022-08-30T12:13:45.947Z,88.40
2022-08-30T12:16:22.053Z,86.50
2022-08-30T12:19:00.153Z,86.40
2022-08-30T12:21:43.659Z,86.00
2022-08-30T12:24:30.266Z,86.70
2022-08-30T12:26:59.027Z,87.10
2022-08-30T12:29:30.219Z,88.30
2022-08-30T12:32:22.288Z,87.20
2022-08-30T12:34:58.894Z,86.90
2022-08-30T12:37:36.362Z,85.90
2022-08-30T12:40:11.679Z,84.90
2022-08-30T12:43:04.790Z,85.00
2022-08-30T12:45:40.117Z,85.00
2022-08-30T12:48:12.351Z,84.20
2022-08-30T12:50:52.000Z,85.10
2022-08-30T12:53:41.992Z,84.90
2022-08-30T12:56:21.277Z,85.50
2022-08-30T12:59:02.170Z,85.00
2022-08-30T13:01:35.877Z,84.70
2022-08-30T13:04:25.815Z,85.00
2022-08-30T13:06:59.523Z,85.90
2022-08-30T13:09:35.294Z,85.60
2022-08-30T13:12:06.033Z,85.20
2022-08-30T13:14:43.984Z,84.60
2022-08-30T13:17:24.475Z,83.10
2022-08-30T13:20:01.086Z,81.20
2022-08-30T13:22:39.067Z,80.70
2022-08-30T13:25:09.410Z,82.30
2022-08-30T13:27:38.852Z,79.90
2022-08-30T13:30:14.772Z,78.70
2022-08-30T13:32:42.340Z,79.90
2022-08-30T13:35:11.203Z,79.00
2022-08-30T13:37:49.554Z,78.20
2022-08-30T13:40:21.185Z,78.70
2022-08-30T13:42:48.786Z,79.00
2022-08-30T13:48:06.743Z,77.50
2022-08-30T13:50:33.772Z,76.50
2022-08-30T13:53:00.763Z,76.50
2022-08-30T13:55:28.546Z,74.60
2022-08-30T13:57:56.590Z,75.40
2022-08-30T14:00:25.945Z,73.30
2022-08-30T14:02:57.196Z,72.80
2022-08-30T14:05:49.475Z,72.40
2022-08-30T14:08:47.797Z,71.60
2022-08-30T14:11:20.855Z,70.50
2022-08-30T14:16:41.334Z,68.40
2022-08-30T14:19:09.049Z,69.50
2022-08-30T14:21:36.623Z,69.80
2022-08-30T14:24:07.888Z,70.00
2022-08-30T14:26:40.436Z,70.40
2022-08-30T14:29:12.194Z,70.90
2022-08-30T14:31:40.675Z,71.30
2022-08-30T14:34:10.937Z,72.00
2022-08-30T14:36:41.820Z,71.60
2022-08-30T14:39:15.135Z,71.00
2022-08-30T14:41:49.349Z,69.90
2022-08-30T14:44:18.476Z,70.60
2022-08-30T14:46:46.005Z,67.90
2022-08-30T14:49:14.081Z,67.40
2022-08-30T14:51:41.749Z,66.10
2022-08-30T14:54:09.879Z,66.10
2022-08-30T14:56:38.385Z,66.90
2022-08-30T14:59:06.175Z,69.00
2022-08-30T15:01:37.289Z,70.40
2022-08-30T15:04:06.210Z,71.50
2022-08-30T15:06:36.140Z,73.00
2022-08-30T15:09:06.570Z,73.80
2022-08-30T15:11:34.138Z,74.30
2022-08-30T15:14:01.851Z,74.70
2022-08-30T15:16:33.805Z,74.80
2022-08-30T15:19:02.706Z,74.80
2022-08-30T15:21:36.235Z,75.50
2022-08-30T15:24:06.132Z,75.60
2022-08-30T15:26:33.498Z,75.30
2022-08-30T15:29:00.366Z,74.80
2022-08-30T15:31:29.030Z,74.30
2022-08-30T15:33:57.237Z,74.20
2022-08-30T15:36:25.949Z,73.90
2022-08-30T15:38:55.696Z,74.30
2022-08-30T15:41:23.920Z,74.20
2022-08-30T15:43:52.753Z,75.10
2022-08-30T15:46:33.136Z,74.90
2022-08-30T15:49:19.060Z,74.30
2022-08-30T15:51:48.329Z,72.70
2022-08-30T15:54:22.854Z,70.40
2022-08-30T15:56:50.148Z,70.10
2022-08-30T15:59:18.546Z,70.20
2022-08-30T16:01:47.681Z,70.20
2022-08-30T16:04:17.104Z,70.00
2022-08-30T16:06:46.641Z,69.80
2022-08-30T16:09:13.981Z,69.10
2022-08-30T16:11:41.826Z,67.80
2022-08-30T16:14:09.862Z,67.60
2022-08-30T16:16:39.983Z,67.20
2022-08-30T16:19:09.195Z,68.30
2022-08-30T16:21:37.379Z,69.70
2022-08-30T16:24:07.819Z,70.00
2022-08-30T16:26:38.042Z,71.40
2022-08-30T16:29:07.582Z,72.10
2022-08-30T16:31:36.734Z,73.40
2022-08-30T16:34:05.180Z,73.40
2022-08-30T16:36:34.542Z,73.50
2022-08-30T16:39:02.373Z,74.50
2022-08-30T16:41:29.531Z,74.00
2022-08-30T16:44:00.467Z,74.70
2022-08-30T16:46:28.116Z,74.80
2022-08-30T16:48:58.284Z,75.40
2022-08-30T16:51:27.976Z,74.80
2022-08-30T16:53:57.986Z,75.30
2022-08-30T16:56:27.183Z,75.10
2022-08-30T16:59:01.241Z,75.30
2022-08-30T17:01:34.944Z,75.40
2022-08-30T17:04:04.201Z,75.90
2022-08-30T17:06:32.220Z,76.10
2022-08-30T17:08:59.510Z,76.60
2022-08-30T17:11:27.289Z,77.10
2022-08-30T17:13:55.008Z,77.40
2022-08-30T17:16:27.561Z,77.10
2022-08-30T17:18:59.926Z,78.10
2022-08-30T17:21:29.817Z,78.00
2022-08-30T17:24:02.427Z,78.60
2022-08-30T17:26:35.286Z,79.10
2022-08-30T17:29:03.780Z,79.60
2022-08-30T17:31:31.478Z,81.30
2022-08-30T17:34:04.136Z,80.90
2022-08-30T17:36:36.606Z,81.60
2022-08-30T17:39:10.631Z,81.70
2022-08-30T17:41:45.171Z,82.70
2022-08-30T17:44:16.988Z,82.20
2022-08-30T17:46:43.952Z,82.90
2022-08-30T17:49:11.794Z,82.60
2022-08-30T17:51:42.529Z,82.80
2022-08-30T17:54:12.747Z,81.70
2022-08-30T17:56:41.442Z,81.60
2022-08-30T17:59:15.400Z,82.30
2022-08-30T18:01:44.826Z,81.90
2022-08-30T18:04:14.113Z,81.60
2022-08-30T18:06:47.493Z,82.00
2022-08-30T18:09:14.680Z,82.10
2022-08-30T18:11:41.906Z,81.60
2022-08-30T18:14:11.402Z,82.20
2022-08-30T18:16:54.261Z,82.60
2022-08-30T18:19:26.332Z,82.20
2022-08-30T18:21:55.549Z,82.60
2022-08-30T18:24:23.214Z,82.80
2022-08-30T18:26:50.426Z,83.40
2022-08-30T18:29:26.228Z,83.10
2022-08-30T18:32:04.174Z,84.00
2022-08-30T18:34:31.646Z,84.60
2022-08-30T18:36:58.631Z,84.80
2022-08-30T18:39:25.971Z,85.80
2022-08-30T18:41:54.448Z,86.00
2022-08-30T18:44:28.367Z,86.30
2022-08-30T18:47:00.308Z,85.60
2022-08-30T18:49:29.035Z,84.80
2022-08-30T18:51:59.749Z,84.60
2022-08-30T18:54:26.641Z,85.30
2022-08-30T18:56:53.680Z,85.90
2022-08-30T18:59:21.784Z,86.40
2022-08-30T19:01:49.681Z,86.20
2022-08-30T19:04:22.261Z,84.80
2022-08-30T19:06:57.338Z,84.60
2022-08-30T19:09:24.297Z,85.30
2022-08-30T19:11:54.233Z,86.20
2022-08-30T19:14:21.682Z,86.20
2022-08-30T19:16:48.598Z,86.60
2022-08-30T19:19:16.123Z,86.70
2022-08-30T19:21:42.948Z,86.90
2022-08-30T19:24:10.089Z,87.00
2022-08-30T19:26:38.405Z,86.50
2022-08-30T19:29:07.204Z,86.50
2022-08-30T19:31:34.733Z,86.40
2022-08-30T19:34:02.450Z,86.20
2022-08-30T19:36:30.666Z,86.30
2022-08-30T19:38:57.632Z,86.50
2022-08-30T19:41:25.989Z,86.10
2022-08-30T19:43:52.843Z,86.20
2022-08-30T19:46:20.189Z,86.30
2022-08-30T19:48:47.187Z,86.20
2022-08-30T19:51:15.745Z,86.70
2022-08-30T19:53:43.484Z,87.30
2022-08-30T19:56:12.059Z,88.10
2022-08-30T19:58:38.970Z,88.40
2022-08-30T20:01:11.860Z,88.00
2022-08-30T20:03:40.101Z,88.90
2022-08-30T20:06:08.908Z,88.50
2022-08-30T20:08:37.147Z,88.50
2022-08-30T20:11:05.614Z,88.10
2022-08-30T20:13:33.761Z,88.90
2022-08-30T20:16:01.574Z,89.60
2022-08-30T20:18:29.150Z,90.30
2022-08-30T20:20:57.176Z,88.90
2022-08-30T20:23:25.369Z,88.60
2022-08-30T20:25:55.497Z,89.20
2022-08-30T20:28:25.184Z,89.10
2022-08-30T20:30:53.730Z,90.00
2022-08-30T20:33:23.491Z,91.00
2022-08-30T20:35:51.636Z,91.30
2022-08-30T20:38:21.425Z,91.50
2022-08-30T20:40:55.063Z,90.80
2022-08-30T20:43:25.569Z,90.50
2022-08-30T20:45:53.472Z,90.70
2022-08-30T20:48:20.767Z,90.50
2022-08-30T20:50:47.928Z,90.10
2022-08-30T20:53:15.329Z,90.00
2022-08-30T20:55:47.685Z,90.00
2022-08-30T20:58:15.222Z,90.00
2022-08-30T21:00:45.887Z,89.50
2022-08-30T21:03:27.689Z,89.70
2022-08-30T21:05:56.651Z,89.00
2022-08-30T21:08:23.676Z,89.80
2022-08-30T21:10:50.725Z,90.10
2022-08-30T21:13:17.864Z,89.30
2022-08-30T21:15:46.218Z,89.60
2022-08-30T21:18:14.295Z,89.50
2022-08-30T21:20:41.766Z,90.50
2022-08-30T21:23:09.345Z,90.00
2022-08-30T21:25:43.792Z,90.60
2022-08-30T21:28:10.986Z,90.50
2022-08-30T21:30:38.243Z,90.50
2022-08-30T21:33:07.395Z,90.40
2022-08-30T21:35:53.823Z,90.70
2022-08-30T21:38:20.899Z,91.90
2022-08-30T21:40:48.754Z,91.60
2022-08-30T21:43:16.367Z,91.50
2022-08-30T21:45:45.614Z,91.70
2022-08-30T21:48:14.142Z,92.10
2022-08-30T21:50:42.715Z,92.70
2022-08-30T21:53:10.761Z,93.40
2022-08-30T21:55:38.863Z,93.00
2022-08-30T21:58:06.436Z,93.40
2022-08-30T22:00:33.708Z,93.30
2022-08-30T22:03:00.796Z,93.90
2022-08-30T22:05:27.809Z,93.80
2022-08-30T22:07:54.813Z,93.90
2022-08-30T22:10:21.833Z,93.90
2022-08-30T22:12:49.039Z,94.30
2022-08-30T22:15:16.510Z,93.70
2022-08-30T22:17:43.874Z,92.90
2022-08-30T22:20:18.470Z,92.60
2022-08-30T22:22:45.620Z,92.70
2022-08-30T22:25:12.781Z,92.00
2022-08-30T22:27:39.874Z,92.40
2022-08-30T22:30:07.476Z,92.50
2022-08-30T22:32:34.510Z,92.60
2022-08-30T22:35:01.617Z,92.60
2022-08-30T22:37:30.069Z,92.60
2022-08-30T22:39:57.033Z,92.60
2022-08-30T22:42:24.072Z,92.50
2022-08-30T22:44:52.157Z,92.70
2022-08-30T22:47:19.175Z,92.80
2022-08-30T22:49:46.036Z,92.70
2022-08-30T22:52:14.441Z,92.50
2022-08-30T22:54:41.411Z,92.40
2022-08-30T22:57:09.161Z,92.60
2022-08-30T22:59:36.261Z,92.60
2022-08-30T23:02:03.468Z,92.70
2022-08-30T23:04:30.990Z,92.60
2022-08-30T23:06:57.960Z,93.20
2022-08-30T23:09:24.812Z,93.70
2022-08-30T23:11:51.796Z,93.70
2022-08-30T23:14:18.808Z,93.60
2022-08-30T23:16:49.292Z,93.50
2022-08-30T23:19:16.899Z,93.30
2022-08-30T23:21:43.973Z,93.40
2022-08-30T23:24:29.417Z,93.40
2022-08-30T23:27:14.885Z,93.90
2022-08-30T23:30:00.386Z,94.00
2022-08-30T23:32:46.024Z,94.20
2022-08-30T23:35:32.228Z,94.10
2022-08-30T23:38:22.660Z,94.00
2022-08-30T23:41:07.926Z,93.80
2022-08-30T23:43:54.144Z,93.60
2022-08-30T23:46:40.199Z,93.60
2022-08-30T23:49:25.729Z,93.60
2022-08-30T23:52:10.976Z,93.70
2022-08-30T23:54:57.572Z,94.50
2022-08-30T23:57:45.545Z,94.80
